createdAt,value
2018-12-06T00:01:13.293Z,7.70
2018-12-06T00:03:40.577Z,6.80
2018-12-06T00:06:07.794Z,7.10
2018-12-06T00:08:35.036Z,7.30
2018-12-06T00:11:02.371Z,8.17
2018-12-06T00:13:29.633Z,6.83
2018-12-06T00:15:57.665Z,7.90
2018-12-06T00:18:24.999Z,7.10
2018-12-06T00:20:52.353Z,8.07
2018-12-06T00:23:19.591Z,7.47
2018-12-06T00:25:46.821Z,7.50
2018-12-06T00:28:14.062Z,8.03
2018-12-06T00:30:41.891Z,7.43
2018-12-06T00:33:09.404Z,7.90
2018-12-06T00:35:36.756Z,7.47
2018-12-06T00:38:04.369Z,8.00
2018-12-06T00:40:31.841Z,7.93
2018-12-06T00:42:59.177Z,8.20
2018-12-06T00:45:27.545Z,7.50
2018-12-06T00:47:56.035Z,7.50
2018-12-06T00:50:26.214Z,7.37
2018-12-06T00:52:55.243Z,6.73
2018-12-06T00:55:23.801Z,7.63
2018-12-06T00:57:52.134Z,7.80
2018-12-06T01:00:20.576Z,8.70
2018-12-06T01:02:49.864Z,7.87
2018-12-06T01:05:18.213Z,7.20
2018-12-06T01:07:49.912Z,7.30
2018-12-06T01:10:18.351Z,6.90
2018-12-06T01:12:46.709Z,7.23
2018-12-06T01:15:15.253Z,7.60
2018-12-06T01:17:43.713Z,6.43
2018-12-06T01:20:14.933Z,6.33
2018-12-06T01:22:43.284Z,6.63
2018-12-06T01:25:12.101Z,7.73
2018-12-06T01:27:40.506Z,7.40
2018-12-06T01:30:09.136Z,7.20
2018-12-06T01:32:38.777Z,6.77
2018-12-06T01:35:07.311Z,6.80
2018-12-06T01:37:35.662Z,8.23
2018-12-06T01:40:04.239Z,7.47
2018-12-06T01:42:32.489Z,6.53
2018-12-06T01:45:00.944Z,6.70
2018-12-06T01:47:29.366Z,7.00
2018-12-06T01:49:57.839Z,6.87
2018-12-06T01:52:26.089Z,7.63
2018-12-06T01:54:54.479Z,6.17
2018-12-06T01:57:22.984Z,7.03
2018-12-06T01:59:51.336Z,7.40
2018-12-06T02:02:19.625Z,7.50
2018-12-06T02:04:48.069Z,8.00
2018-12-06T02:07:18.599Z,7.47
2018-12-06T02:09:46.828Z,7.13
2018-12-06T02:12:15.982Z,7.00
2018-12-06T02:14:44.424Z,7.00
2018-12-06T02:17:12.814Z,7.40
2018-12-06T02:19:41.316Z,7.30
2018-12-06T02:22:09.677Z,7.50
2018-12-06T02:24:38.140Z,8.13
2018-12-06T02:27:06.548Z,8.20
2018-12-06T02:29:42.635Z,8.20
2018-12-06T02:32:11.020Z,7.97
2018-12-06T02:34:39.355Z,7.90
2018-12-06T02:37:07.774Z,9.70
2018-12-06T02:39:36.196Z,9.13
2018-12-06T02:42:07.150Z,9.20
2018-12-06T02:44:35.647Z,8.70
2018-12-06T02:47:04.300Z,9.00
2018-12-06T02:49:32.713Z,9.67
2018-12-06T02:52:01.168Z,9.03
2018-12-06T02:54:29.497Z,9.27
2018-12-06T02:56:57.959Z,9.53
2018-12-06T02:59:26.492Z,8.90
2018-12-06T03:01:55.129Z,10.03
2018-12-06T03:04:25.979Z,9.80
2018-12-06T03:06:54.312Z,9.87
2018-12-06T03:09:22.664Z,9.07
2018-12-06T03:11:51.081Z,9.20
2018-12-06T03:14:19.505Z,9.47
2018-12-06T03:16:47.771Z,9.37
2018-12-06T03:19:18.564Z,9.40
2018-12-06T03:21:47.020Z,10.33
2018-12-06T03:24:15.603Z,9.80
2018-12-06T03:26:44.089Z,10.27
2018-12-06T03:29:12.365Z,9.07
2018-12-06T03:31:40.956Z,8.97
2018-12-06T03:34:10.840Z,9.30
2018-12-06T03:36:40.548Z,8.60
2018-12-06T03:39:08.833Z,10.50
2018-12-06T03:41:37.244Z,9.10
2018-12-06T03:44:05.542Z,9.97
2018-12-06T03:46:33.792Z,9.90
2018-12-06T03:49:02.293Z,9.93
2018-12-06T03:51:34.540Z,10.30
2018-12-06T03:54:01.712Z,10.77
2018-12-06T03:56:30.124Z,10.60
2018-12-06T03:58:58.337Z,10.33
2018-12-06T04:01:26.582Z,10.70
2018-12-06T04:03:55.105Z,10.40
2018-12-06T04:06:23.764Z,11.60
2018-12-06T04:08:51.935Z,12.00
2018-12-06T04:11:20.450Z,10.33
2018-12-06T04:13:48.797Z,11.60
2018-12-06T04:16:17.140Z,11.57
2018-12-06T04:18:45.684Z,11.57
2018-12-06T04:21:14.230Z,11.83
2018-12-06T04:23:42.590Z,14.03
2018-12-06T04:26:11.040Z,10.90
2018-12-06T04:28:39.488Z,11.77
2018-12-06T04:31:07.748Z,12.07
2018-12-06T04:33:41.673Z,11.80
2018-12-06T04:36:10.031Z,12.53
2018-12-06T04:38:38.469Z,13.03
2018-12-06T04:41:06.801Z,12.90
2018-12-06T04:43:35.171Z,13.07
2018-12-06T04:46:03.781Z,11.67
2018-12-06T04:48:32.261Z,12.50
2018-12-06T04:51:00.514Z,13.93
2018-12-06T04:53:28.852Z,13.63
2018-12-06T04:55:57.463Z,13.77
2018-12-06T04:58:25.834Z,12.40
2018-12-06T05:00:59.248Z,13.10
2018-12-06T05:03:26.994Z,13.20
2018-12-06T05:05:55.732Z,13.10
2018-12-06T05:08:28.284Z,14.50
2018-12-06T05:10:57.712Z,13.60
2018-12-06T05:13:26.202Z,13.60
2018-12-06T05:15:54.585Z,14.60
2018-12-06T05:18:23.164Z,13.13
2018-12-06T05:20:51.517Z,14.70
2018-12-06T05:23:19.884Z,13.83
2018-12-06T05:25:48.228Z,14.90
2018-12-06T05:28:16.798Z,15.27
2018-12-06T05:30:45.169Z,13.30
2018-12-06T05:33:13.514Z,13.90
2018-12-06T05:35:42.196Z,13.33
2018-12-06T05:38:14.396Z,14.60
2018-12-06T05:40:42.684Z,13.47
2018-12-06T05:43:11.136Z,14.90
2018-12-06T05:45:39.495Z,13.67
2018-12-06T05:48:07.873Z,14.83
2018-12-06T05:50:36.356Z,15.40
2018-12-06T05:53:04.896Z,14.90
2018-12-06T05:55:33.417Z,15.33
2018-12-06T05:58:01.754Z,14.90
2018-12-06T06:00:30.238Z,15.93
2018-12-06T06:02:58.609Z,14.70
2018-12-06T06:05:27.337Z,16.50
2018-12-06T06:07:55.765Z,16.20
2018-12-06T06:10:25.692Z,16.37
2018-12-06T06:12:54.353Z,16.57
2018-12-06T06:15:22.708Z,17.10
2018-12-06T06:17:51.388Z,17.20
2018-12-06T06:20:19.752Z,16.40
2018-12-06T06:22:48.036Z,17.97
2018-12-06T06:25:16.329Z,16.27
2018-12-06T06:27:44.645Z,16.27
2018-12-06T06:30:13.121Z,16.17
2018-12-06T06:32:43.346Z,17.10
2018-12-06T06:35:11.710Z,16.10
2018-12-06T06:37:40.067Z,15.67
2018-12-06T06:40:08.758Z,16.63
2018-12-06T06:42:37.325Z,16.90
2018-12-06T06:45:05.964Z,16.73
2018-12-06T06:47:34.522Z,14.07
2018-12-06T06:50:03.321Z,15.70
2018-12-06T06:52:34.181Z,15.40
2018-12-06T06:55:03.072Z,16.90
2018-12-06T06:57:31.524Z,16.00
2018-12-06T06:59:59.866Z,16.30
2018-12-06T07:02:28.209Z,14.07
2018-12-06T07:04:56.765Z,14.40
2018-12-06T07:07:25.215Z,14.37
2018-12-06T07:09:53.505Z,13.47
2018-12-06T07:12:22.152Z,13.90
2018-12-06T07:14:50.521Z,13.43
2018-12-06T07:17:18.965Z,12.80
2018-12-06T07:19:47.318Z,13.40
2018-12-06T07:22:16.500Z,12.30
2018-12-06T07:24:44.961Z,12.07
2018-12-06T07:27:13.312Z,12.73
2018-12-06T07:29:43.419Z,13.53
2018-12-06T07:32:11.781Z,12.37
2018-12-06T07:34:40.154Z,12.70
2018-12-06T07:37:08.623Z,12.20
2018-12-06T07:39:37.468Z,12.83
2018-12-06T07:42:05.954Z,12.83
2018-12-06T07:44:34.661Z,12.57
2018-12-06T07:47:03.530Z,11.77
2018-12-06T07:49:32.157Z,13.17
2018-12-06T07:52:00.624Z,12.60
2018-12-06T07:54:29.857Z,11.30
2018-12-06T07:56:58.350Z,12.80
2018-12-06T07:59:26.713Z,11.70
2018-12-06T08:01:58.468Z,12.53
2018-12-06T08:04:26.838Z,12.50
2018-12-06T08:06:56.551Z,11.97
2018-12-06T08:09:25.146Z,12.40
2018-12-06T08:11:53.493Z,11.57
2018-12-06T08:14:21.927Z,12.53
2018-12-06T08:16:50.338Z,12.93
2018-12-06T08:19:18.833Z,11.60
2018-12-06T08:21:47.205Z,13.00
2018-12-06T08:24:15.854Z,13.20
2018-12-06T08:26:44.425Z,14.00
2018-12-06T08:29:12.680Z,12.70
2018-12-06T08:31:41.052Z,12.50
2018-12-06T08:34:09.340Z,13.00
2018-12-06T08:36:37.684Z,12.97
2018-12-06T08:39:06.501Z,12.57
2018-12-06T08:41:34.856Z,14.53
2018-12-06T08:44:06.222Z,14.60
2018-12-06T08:46:34.573Z,15.10
2018-12-06T08:49:03.327Z,15.57
2018-12-06T08:51:31.669Z,14.10
2018-12-06T08:54:00.033Z,13.87
2018-12-06T08:56:28.733Z,14.67
2018-12-06T08:58:57.097Z,13.90
2018-12-06T09:01:25.511Z,14.33
2018-12-06T09:03:53.906Z,15.87
2018-12-06T09:06:22.417Z,15.13
2018-12-06T09:08:50.817Z,16.73
2018-12-06T09:11:19.329Z,17.80
2018-12-06T09:13:47.691Z,18.10
2018-12-06T09:16:16.371Z,17.70
2018-12-06T09:18:49.325Z,18.13
2018-12-06T09:21:17.672Z,18.33
2018-12-06T09:23:46.013Z,20.90
2018-12-06T09:26:14.339Z,19.37
2018-12-06T09:28:42.664Z,20.27
2018-12-06T09:31:15.359Z,19.00
2018-12-06T09:33:55.318Z,20.30
2018-12-06T09:36:23.612Z,20.70
2018-12-06T09:38:51.978Z,19.30
2018-12-06T09:41:20.222Z,21.77
2018-12-06T09:43:48.718Z,18.87
2018-12-06T09:46:17.381Z,17.80
2018-12-06T09:48:45.829Z,21.30
2018-12-06T09:51:17.490Z,19.10
2018-12-06T09:53:45.848Z,20.03
2018-12-06T09:56:14.423Z,19.73
2018-12-06T09:58:42.731Z,19.07
2018-12-06T10:01:11.262Z,18.87
2018-12-06T10:03:45.771Z,17.90
2018-12-06T10:06:14.155Z,18.13
2018-12-06T10:08:42.496Z,18.50
2018-12-06T10:11:10.934Z,16.40
2018-12-06T10:13:39.282Z,16.60
2018-12-06T10:16:07.664Z,15.90
2018-12-06T10:18:37.552Z,15.33
2018-12-06T10:21:05.912Z,16.30
2018-12-06T10:23:34.277Z,16.03
2018-12-06T10:26:02.629Z,15.70
2018-12-06T10:28:30.970Z,15.30
2018-12-06T10:31:03.504Z,15.67
2018-12-06T10:33:31.846Z,16.70
2018-12-06T10:36:00.213Z,16.00
2018-12-06T10:38:29.179Z,16.37
2018-12-06T10:40:57.642Z,17.27
2018-12-06T10:43:27.902Z,16.50
2018-12-06T10:45:56.664Z,16.60
2018-12-06T10:48:25.032Z,17.33
2018-12-06T10:52:01.182Z,18.00
2018-12-06T10:54:28.404Z,18.30
2018-12-06T10:56:55.892Z,20.73
2018-12-06T10:59:27.304Z,20.50
2018-12-06T11:02:00.381Z,19.50
2018-12-06T11:04:33.425Z,18.97
2018-12-06T11:07:01.143Z,20.10
2018-12-06T11:09:32.885Z,22.20
2018-12-06T11:12:00.297Z,22.53
2018-12-06T11:14:27.650Z,22.77
2018-12-06T11:16:54.898Z,23.10
2018-12-06T11:19:22.158Z,22.57
2018-12-06T11:21:49.641Z,23.00
2018-12-06T11:24:19.041Z,24.13
2018-12-06T11:26:46.269Z,22.50
2018-12-06T11:29:13.630Z,21.97
2018-12-06T11:31:40.852Z,20.17
2018-12-06T11:34:08.115Z,19.90
2018-12-06T11:36:35.372Z,19.33
2018-12-06T11:39:07.675Z,19.70
2018-12-06T11:41:34.933Z,20.17
2018-12-06T11:44:02.466Z,20.27
2018-12-06T11:46:29.721Z,19.27
2018-12-06T11:48:57.214Z,18.40
2018-12-06T11:51:24.450Z,19.17
2018-12-06T11:53:57.292Z,17.23
2018-12-06T11:56:24.528Z,17.33
2018-12-06T11:58:51.749Z,17.33
2018-12-06T12:01:19.262Z,16.47
2018-12-06T12:03:46.513Z,16.83
2018-12-06T12:06:13.769Z,14.70
2018-12-06T12:08:42.283Z,15.60
2018-12-06T12:11:09.775Z,15.00
2018-12-06T12:13:37.053Z,15.50
2018-12-06T12:16:04.592Z,14.33
2018-12-06T12:18:31.817Z,15.13
2018-12-06T12:20:59.097Z,14.67
2018-12-06T12:23:28.109Z,16.80
2018-12-06T12:25:56.501Z,15.60
2018-12-06T12:28:24.968Z,16.97
2018-12-06T12:30:53.400Z,16.60
2018-12-06T12:33:21.890Z,14.73
2018-12-06T12:35:52.353Z,16.63
2018-12-06T12:38:20.812Z,16.33
2018-12-06T12:40:49.321Z,16.50
2018-12-06T12:43:17.856Z,14.73
2018-12-06T12:45:46.121Z,16.17
2018-12-06T12:48:20.718Z,15.57
2018-12-06T12:50:49.190Z,14.73
2018-12-06T12:53:17.537Z,15.40
2018-12-06T12:55:45.877Z,16.47
2018-12-06T12:58:14.261Z,15.83
2018-12-06T13:00:43.841Z,13.83
2018-12-06T13:03:12.342Z,13.43
2018-12-06T13:05:40.761Z,13.60
2018-12-06T13:08:09.109Z,12.97
2018-12-06T13:10:37.559Z,11.50
2018-12-06T13:13:10.651Z,11.07
2018-12-06T13:15:39.154Z,10.40
2018-12-06T13:18:08.298Z,10.20
2018-12-06T13:20:36.873Z,9.50
2018-12-06T13:23:05.612Z,10.30
2018-12-06T13:25:39.113Z,9.80
2018-12-06T13:28:07.598Z,10.20
2018-12-06T13:30:36.044Z,11.30
2018-12-06T13:33:04.549Z,10.30
2018-12-06T13:35:33.024Z,8.40
2018-12-06T13:38:06.064Z,9.47
2018-12-06T13:40:34.440Z,9.03
2018-12-06T13:43:03.042Z,8.80
2018-12-06T13:45:31.496Z,8.60
2018-12-06T13:47:59.851Z,7.90
2018-12-06T13:50:30.353Z,9.40
2018-12-06T13:52:58.726Z,8.80
2018-12-06T13:55:27.202Z,8.80
2018-12-06T13:57:55.615Z,9.83
2018-12-06T14:00:24.121Z,10.17
2018-12-06T14:02:56.986Z,8.90
2018-12-06T14:05:25.360Z,9.27
2018-12-06T14:07:53.864Z,8.40
2018-12-06T14:10:22.357Z,7.87
2018-12-06T14:12:50.863Z,9.23
2018-12-06T14:15:24.188Z,8.80
2018-12-06T14:17:52.681Z,8.17
2018-12-06T14:20:21.046Z,7.67
2018-12-06T14:22:49.396Z,9.17
2018-12-06T14:25:17.735Z,8.00
2018-12-06T14:27:50.112Z,8.57
2018-12-06T14:30:18.582Z,11.07
2018-12-06T14:32:47.070Z,9.13
2018-12-06T14:35:15.571Z,8.70
2018-12-06T14:37:43.921Z,9.90
2018-12-06T14:40:15.787Z,9.37
2018-12-06T14:42:44.117Z,9.60
2018-12-06T14:45:12.574Z,10.20
2018-12-06T14:47:40.809Z,9.10
2018-12-06T14:50:09.253Z,9.17
2018-12-06T14:52:39.814Z,11.20
2018-12-06T14:55:08.290Z,10.47
2018-12-06T14:57:36.625Z,9.30
2018-12-06T15:00:07.520Z,11.17
2018-12-06T15:02:35.889Z,10.20
2018-12-06T15:05:07.188Z,9.60
2018-12-06T15:07:35.530Z,11.70
2018-12-06T15:10:05.073Z,10.70
2018-12-06T15:12:33.413Z,9.30
2018-12-06T15:15:07.002Z,8.50
2018-12-06T15:17:35.289Z,10.37
2018-12-06T15:20:03.936Z,10.27
2018-12-06T15:22:32.319Z,10.57
2018-12-06T15:25:00.981Z,9.87
2018-12-06T15:27:32.444Z,9.30
2018-12-06T15:30:00.794Z,8.50
2018-12-06T15:32:29.133Z,9.00
2018-12-06T15:34:57.549Z,9.03
2018-12-06T15:37:25.811Z,10.73
2018-12-06T15:40:17.172Z,8.67
2018-12-06T15:42:45.434Z,8.83
2018-12-06T15:45:14.485Z,8.97
2018-12-06T15:47:42.865Z,8.30
2018-12-06T15:50:11.252Z,9.20
2018-12-06T15:52:39.577Z,8.77
2018-12-06T15:55:08.009Z,8.37
2018-12-06T15:57:38.338Z,7.13
2018-12-06T16:00:10.288Z,7.87
2018-12-06T16:02:38.919Z,6.40
2018-12-06T16:05:07.617Z,7.37
2018-12-06T16:07:36.015Z,6.93
2018-12-06T16:10:08.510Z,7.80
2018-12-06T16:12:36.872Z,6.63
2018-12-06T16:15:06.865Z,7.40
2018-12-06T16:17:35.305Z,7.10
2018-12-06T16:20:08.563Z,7.07
2018-12-06T16:22:36.905Z,7.13
2018-12-06T16:25:06.188Z,8.03
2018-12-06T16:27:34.568Z,7.10
2018-12-06T16:30:03.704Z,6.83
2018-12-06T16:32:36.457Z,7.57
2018-12-06T16:35:05.365Z,6.50
2018-12-06T16:37:33.780Z,7.70
2018-12-06T16:40:02.421Z,7.00
2018-12-06T16:42:32.527Z,7.13
2018-12-06T16:45:05.025Z,8.47
2018-12-06T16:47:33.344Z,7.43
2018-12-06T16:50:01.864Z,6.87
2018-12-06T16:52:30.296Z,8.23
2018-12-06T16:55:03.696Z,7.63
2018-12-06T16:57:32.055Z,7.27
2018-12-06T17:00:00.413Z,7.30
2018-12-06T17:02:28.834Z,7.20
2018-12-06T17:04:57.409Z,8.17
2018-12-06T17:07:25.921Z,8.70
2018-12-06T17:09:54.188Z,7.53
2018-12-06T17:12:22.598Z,7.30
2018-12-06T17:14:51.280Z,8.07
2018-12-06T17:17:19.847Z,8.03
2018-12-06T17:19:48.347Z,7.33
2018-12-06T17:22:16.734Z,8.20
2018-12-06T17:24:45.076Z,8.70
2018-12-06T17:27:13.495Z,7.47
2018-12-06T17:29:41.941Z,7.63
2018-12-06T17:32:10.334Z,6.80
2018-12-06T17:34:39.039Z,7.63
2018-12-06T17:37:07.496Z,7.30
2018-12-06T17:39:35.877Z,8.90
2018-12-06T17:42:04.405Z,7.63
2018-12-06T17:44:33.140Z,7.20
2018-12-06T17:47:01.525Z,7.60
2018-12-06T17:49:30.016Z,7.50
2018-12-06T17:51:58.492Z,7.90
2018-12-06T17:54:26.959Z,6.90
2018-12-06T17:56:55.601Z,7.40
2018-12-06T17:59:23.937Z,7.07
2018-12-06T18:01:52.412Z,7.60
2018-12-06T18:04:20.792Z,7.50
2018-12-06T18:06:49.471Z,6.90
2018-12-06T18:09:17.948Z,7.53
2018-12-06T18:11:46.237Z,7.40
2018-12-06T18:14:14.632Z,8.70
2018-12-06T18:16:42.896Z,7.50
2018-12-06T18:19:11.552Z,7.33
2018-12-06T18:21:39.981Z,7.00
2018-12-06T18:24:08.429Z,7.70
2018-12-06T18:26:36.841Z,7.10
2018-12-06T18:29:05.478Z,7.87
2018-12-06T18:31:33.847Z,7.00
2018-12-06T18:34:02.700Z,8.57
2018-12-06T18:36:31.039Z,8.00
2018-12-06T18:38:59.409Z,9.87
2018-12-06T18:41:29.589Z,8.20
2018-12-06T18:43:56.938Z,8.60
2018-12-06T18:46:25.473Z,8.10
2018-12-06T18:48:53.847Z,7.33
2018-12-06T18:51:22.224Z,7.80
2018-12-06T18:53:50.807Z,8.30
2018-12-06T18:56:19.608Z,9.00
2018-12-06T18:58:48.067Z,8.80
2018-12-06T19:01:16.474Z,8.97
2018-12-06T19:03:44.980Z,8.93
2018-12-06T19:06:13.352Z,8.17
2018-12-06T19:08:41.700Z,8.87
2018-12-06T19:11:10.064Z,8.60
2018-12-06T19:13:38.448Z,10.07
2018-12-06T19:16:07.065Z,8.70
2018-12-06T19:18:35.609Z,8.93
2018-12-06T19:21:07.757Z,10.17
2018-12-06T19:23:36.770Z,10.10
2018-12-06T19:26:05.048Z,9.37
2018-12-06T19:28:33.384Z,10.43
2018-12-06T19:31:01.849Z,9.90
2018-12-06T19:33:30.295Z,11.33
2018-12-06T19:35:58.928Z,10.90
2018-12-06T19:38:27.503Z,9.50
2018-12-06T19:40:56.308Z,9.87
2018-12-06T19:43:24.610Z,10.40
2018-12-06T19:45:52.928Z,10.53
2018-12-06T19:48:21.406Z,11.97
2018-12-06T19:50:49.917Z,12.20
2018-12-06T19:53:18.265Z,12.37
2018-12-06T19:55:46.589Z,12.10
2018-12-06T19:58:16.123Z,10.97
2018-12-06T20:00:44.385Z,11.63
2018-12-06T20:03:13.017Z,12.90
2018-12-06T20:05:42.445Z,11.70
2018-12-06T20:08:10.790Z,12.63
2018-12-06T20:10:39.150Z,11.70
2018-12-06T20:13:07.372Z,12.10
2018-12-06T20:15:35.737Z,12.50
2018-12-06T20:18:04.589Z,12.90
2018-12-06T20:20:33.055Z,12.93
2018-12-06T20:23:01.545Z,13.80
2018-12-06T20:25:29.973Z,13.47
2018-12-06T20:28:00.924Z,14.93
2018-12-06T20:30:29.790Z,12.57
2018-12-06T20:32:58.092Z,12.70
2018-12-06T20:35:26.425Z,14.50
2018-12-06T20:37:55.412Z,12.23
2018-12-06T20:40:23.772Z,12.60
2018-12-06T20:42:52.228Z,14.10
2018-12-06T20:45:20.753Z,13.53
2018-12-06T20:47:53.226Z,12.50
2018-12-06T20:50:20.490Z,14.03
2018-12-06T20:52:48.897Z,13.23
2018-12-06T20:55:18.472Z,13.23
2018-12-06T20:57:46.829Z,14.03
2018-12-06T21:00:15.562Z,12.73
2018-12-06T21:02:43.974Z,13.30
2018-12-06T21:05:12.468Z,12.07
2018-12-06T21:07:40.751Z,12.60
2018-12-06T21:10:09.212Z,14.00
2018-12-06T21:12:37.864Z,12.80
2018-12-06T21:15:07.018Z,13.47
2018-12-06T21:17:35.348Z,11.67
2018-12-06T21:20:04.693Z,14.20
2018-12-06T21:22:33.024Z,12.10
2018-12-06T21:25:01.613Z,13.77
2018-12-06T21:27:30.070Z,12.60
2018-12-06T21:29:58.620Z,13.13
2018-12-06T21:32:26.999Z,13.47
2018-12-06T21:34:55.215Z,13.07
2018-12-06T21:37:23.678Z,13.30
2018-12-06T21:39:51.923Z,12.47
2018-12-06T21:42:20.541Z,13.53
2018-12-06T21:44:49.120Z,13.40
2018-12-06T21:47:23.212Z,12.67
2018-12-06T21:49:51.748Z,13.87
2018-12-06T21:52:20.130Z,13.00
2018-12-06T21:54:48.795Z,12.20
2018-12-06T21:57:17.312Z,13.20
2018-12-06T21:59:45.931Z,11.90
2018-12-06T22:02:21.912Z,12.50
2018-12-06T22:04:51.724Z,11.30
2018-12-06T22:07:22.722Z,12.43
2018-12-06T22:09:51.282Z,11.53
2018-12-06T22:12:19.514Z,11.20
2018-12-06T22:14:47.912Z,12.03
2018-12-06T22:17:16.465Z,11.30
2018-12-06T22:19:45.133Z,11.43
2018-12-06T22:22:13.503Z,10.33
2018-12-06T22:24:41.757Z,11.07
2018-12-06T22:27:10.097Z,10.57
2018-12-06T22:29:38.457Z,10.87
2018-12-06T22:32:08.300Z,10.10
2018-12-06T22:34:36.677Z,11.10
2018-12-06T22:37:05.158Z,10.10
2018-12-06T22:39:33.522Z,8.70
2018-12-06T22:42:01.957Z,7.97
2018-12-06T22:44:30.581Z,8.50
2018-12-06T22:46:59.001Z,8.00
2018-12-06T22:49:27.362Z,7.70
2018-12-06T22:51:55.844Z,8.17
2018-12-06T22:54:24.219Z,7.70
2018-12-06T22:56:52.555Z,8.10
2018-12-06T22:59:21.040Z,7.90
2018-12-06T23:01:49.953Z,8.40
2018-12-06T23:04:18.535Z,7.60
2018-12-06T23:06:46.923Z,8.40
2018-12-06T23:09:15.360Z,8.20
2018-12-06T23:11:44.452Z,7.80
2018-12-06T23:14:12.900Z,7.20
2018-12-06T23:16:41.563Z,7.43
2018-12-06T23:19:10.093Z,7.13
2018-12-06T23:21:38.411Z,7.37
2018-12-06T23:24:06.667Z,7.33
2018-12-06T23:26:35.009Z,7.17
2018-12-06T23:29:03.559Z,8.33
2018-12-06T23:31:31.902Z,7.20
2018-12-06T23:34:00.375Z,6.97
2018-12-06T23:36:28.704Z,7.03
2018-12-06T23:38:57.061Z,7.00
2018-12-06T23:41:26.169Z,6.47
2018-12-06T23:43:54.568Z,7.63
2018-12-06T23:46:22.796Z,6.77
2018-12-06T23:48:51.318Z,6.80
2018-12-06T23:51:32.909Z,7.00
2018-12-06T23:54:01.361Z,6.73
2018-12-06T23:56:30.216Z,6.67
2018-12-06T23:58:58.965Z,7.10
